sensor_id;sensor_type;location;lat;lon;timestamp;P1;durP1;ratioP1;P2;durP2;ratioP2
16969;SDS011;8601;48.718;8.992;2023-06-14T00:02:25;3.90;;;3.53;;
16969;SDS011;8601;48.718;8.992;2023-06-14T00:04:52;5.10;;;3.20;;
16969;SDS011;8601;48.718;8.992;2023-06-14T00:07:22;7.03;;;4.03;;
16969;SDS011;8601;48.718;8.992;2023-06-14T00:10:01;4.23;;;3.67;;
16969;SDS011;8601;48.718;8.992;2023-06-14T00:12:29;4.73;;;3.53;;
16969;SDS011;8601;48.718;8.992;2023-06-14T00:14:56;3.87;;;3.47;;
16969;SDS011;8601;48.718;8.992;2023-06-14T00:17:23;3.77;;;3.40;;
16969;SDS011;8601;48.718;8.992;2023-06-14T00:19:55;5.17;;;3.40;;
16969;SDS011;8601;48.718;8.992;2023-06-14T00:22:24;3.90;;;3.50;;
16969;SDS011;8601;48.718;8.992;2023-06-14T00:24:53;4.00;;;3.40;;
16969;SDS011;8601;48.718;8.992;2023-06-14T00:27:20;5.67;;;3.53;;
16969;SDS011;8601;48.718;8.992;2023-06-14T00:29:47;5.30;;;3.80;;
16969;SDS011;8601;48.718;8.992;2023-06-14T00:32:14;4.07;;;3.73;;
16969;SDS011;8601;48.718;8.992;2023-06-14T00:34:41;4.63;;;4.23;;
16969;SDS011;8601;48.718;8.992;2023-06-14T00:37:08;4.60;;;3.53;;
16969;SDS011;8601;48.718;8.992;2023-06-14T00:39:36;4.93;;;3.83;;
16969;SDS011;8601;48.718;8.992;2023-06-14T00:42:04;4.30;;;3.90;;
16969;SDS011;8601;48.718;8.992;2023-06-14T00:44:31;4.40;;;3.30;;
16969;SDS011;8601;48.718;8.992;2023-06-14T00:46:58;3.73;;;3.33;;
16969;SDS011;8601;48.718;8.992;2023-06-14T00:49:25;3.77;;;3.47;;
16969;SDS011;8601;48.718;8.992;2023-06-14T00:51:52;4.43;;;3.67;;
16969;SDS011;8601;48.718;8.992;2023-06-14T00:54:19;4.30;;;3.70;;
16969;SDS011;8601;48.718;8.992;2023-06-14T00:56:47;3.90;;;3.60;;
16969;SDS011;8601;48.718;8.992;2023-06-14T00:59:14;4.73;;;3.57;;
16969;SDS011;8601;48.718;8.992;2023-06-14T01:01:41;4.93;;;3.43;;
16969;SDS011;8601;48.718;8.992;2023-06-14T01:04:08;5.37;;;3.90;;
16969;SDS011;8601;48.718;8.992;2023-06-14T01:06:38;6.67;;;4.17;;
16969;SDS011;8601;48.718;8.992;2023-06-14T01:09:14;4.53;;;3.90;;
16969;SDS011;8601;48.718;8.992;2023-06-14T01:11:49;4.03;;;3.63;;
16969;SDS011;8601;48.718;8.992;2023-06-14T01:14:20;4.23;;;3.80;;
16969;SDS011;8601;48.718;8.992;2023-06-14T01:16:48;3.80;;;3.50;;
16969;SDS011;8601;48.718;8.992;2023-06-14T01:19:18;4.60;;;3.70;;
16969;SDS011;8601;48.718;8.992;2023-06-14T01:21:47;5.10;;;3.80;;
16969;SDS011;8601;48.718;8.992;2023-06-14T01:24:17;4.40;;;3.93;;
16969;SDS011;8601;48.718;8.992;2023-06-14T01:26:50;5.00;;;3.90;;
16969;SDS011;8601;48.718;8.992;2023-06-14T01:29:21;4.73;;;3.90;;
16969;SDS011;8601;48.718;8.992;2023-06-14T01:31:50;8.50;;;3.63;;
16969;SDS011;8601;48.718;8.992;2023-06-14T01:34:17;5.17;;;4.17;;
16969;SDS011;8601;48.718;8.992;2023-06-14T01:36:44;4.40;;;4.00;;
16969;SDS011;8601;48.718;8.992;2023-06-14T01:39:12;5.77;;;4.30;;
16969;SDS011;8601;48.718;8.992;2023-06-14T01:41:42;5.77;;;4.43;;
16969;SDS011;8601;48.718;8.992;2023-06-14T01:44:10;5.67;;;4.10;;
16969;SDS011;8601;48.718;8.992;2023-06-14T01:46:40;5.47;;;4.03;;
16969;SDS011;8601;48.718;8.992;2023-06-14T01:49:08;5.00;;;4.00;;
16969;SDS011;8601;48.718;8.992;2023-06-14T01:51:36;4.20;;;3.80;;
16969;SDS011;8601;48.718;8.992;2023-06-14T01:54:03;4.60;;;4.10;;
16969;SDS011;8601;48.718;8.992;2023-06-14T01:56:30;5.57;;;5.03;;
16969;SDS011;8601;48.718;8.992;2023-06-14T01:58:58;5.60;;;4.27;;
16969;SDS011;8601;48.718;8.992;2023-06-14T02:01:25;4.80;;;3.90;;
16969;SDS011;8601;48.718;8.992;2023-06-14T02:03:53;4.13;;;3.73;;
16969;SDS011;8601;48.718;8.992;2023-06-14T02:06:20;4.60;;;4.10;;
16969;SDS011;8601;48.718;8.992;2023-06-14T02:08:47;4.37;;;3.87;;
16969;SDS011;8601;48.718;8.992;2023-06-14T02:11:14;5.57;;;4.13;;
16969;SDS011;8601;48.718;8.992;2023-06-14T02:13:40;5.57;;;3.87;;
16969;SDS011;8601;48.718;8.992;2023-06-14T02:16:09;4.30;;;3.67;;
16969;SDS011;8601;48.718;8.992;2023-06-14T02:18:36;5.70;;;3.90;;
16969;SDS011;8601;48.718;8.992;2023-06-14T02:21:02;5.40;;;3.80;;
16969;SDS011;8601;48.718;8.992;2023-06-14T02:23:29;6.00;;;4.60;;
16969;SDS011;8601;48.718;8.992;2023-06-14T02:25:57;6.50;;;4.27;;
16969;SDS011;8601;48.718;8.992;2023-06-14T02:28:24;4.80;;;4.00;;
16969;SDS011;8601;48.718;8.992;2023-06-14T02:30:50;5.43;;;4.17;;
16969;SDS011;8601;48.718;8.992;2023-06-14T02:33:19;4.60;;;4.20;;
16969;SDS011;8601;48.718;8.992;2023-06-14T02:35:47;4.30;;;3.90;;
16969;SDS011;8601;48.718;8.992;2023-06-14T02:38:14;4.53;;;3.63;;
16969;SDS011;8601;48.718;8.992;2023-06-14T02:40:40;4.27;;;3.87;;
16969;SDS011;8601;48.718;8.992;2023-06-14T02:43:07;7.37;;;4.13;;
16969;SDS011;8601;48.718;8.992;2023-06-14T02:45:34;4.07;;;3.50;;
16969;SDS011;8601;48.718;8.992;2023-06-14T02:48:02;4.30;;;3.77;;
16969;SDS011;8601;48.718;8.992;2023-06-14T02:50:30;5.80;;;3.93;;
16969;SDS011;8601;48.718;8.992;2023-06-14T02:52:57;4.43;;;4.00;;
16969;SDS011;8601;48.718;8.992;2023-06-14T02:55:24;4.03;;;3.50;;
16969;SDS011;8601;48.718;8.992;2023-06-14T02:57:51;4.90;;;4.00;;
16969;SDS011;8601;48.718;8.992;2023-06-14T03:00:18;5.47;;;4.23;;
16969;SDS011;8601;48.718;8.992;2023-06-14T03:02:45;5.03;;;3.50;;
16969;SDS011;8601;48.718;8.992;2023-06-14T03:05:12;5.47;;;3.80;;
16969;SDS011;8601;48.718;8.992;2023-06-14T03:07:41;5.77;;;4.23;;
16969;SDS011;8601;48.718;8.992;2023-06-14T03:10:10;5.63;;;3.90;;
16969;SDS011;8601;48.718;8.992;2023-06-14T03:12:38;5.13;;;4.03;;
16969;SDS011;8601;48.718;8.992;2023-06-14T03:15:05;4.00;;;3.60;;
16969;SDS011;8601;48.718;8.992;2023-06-14T03:17:34;5.23;;;3.70;;
16969;SDS011;8601;48.718;8.992;2023-06-14T03:20:04;4.50;;;3.80;;
16969;SDS011;8601;48.718;8.992;2023-06-14T03:22:33;5.33;;;4.13;;
16969;SDS011;8601;48.718;8.992;2023-06-14T03:25:01;6.07;;;3.87;;
16969;SDS011;8601;48.718;8.992;2023-06-14T03:27:29;4.97;;;4.43;;
16969;SDS011;8601;48.718;8.992;2023-06-14T03:29:56;4.70;;;4.20;;
16969;SDS011;8601;48.718;8.992;2023-06-14T03:32:23;4.80;;;3.97;;
16969;SDS011;8601;48.718;8.992;2023-06-14T03:34:49;5.67;;;4.23;;
16969;SDS011;8601;48.718;8.992;2023-06-14T03:37:17;5.67;;;4.17;;
16969;SDS011;8601;48.718;8.992;2023-06-14T03:39:44;6.53;;;3.80;;
16969;SDS011;8601;48.718;8.992;2023-06-14T03:42:14;6.60;;;4.03;;
16969;SDS011;8601;48.718;8.992;2023-06-14T03:44:41;5.73;;;3.70;;
16969;SDS011;8601;48.718;8.992;2023-06-14T03:47:07;6.30;;;4.47;;
16969;SDS011;8601;48.718;8.992;2023-06-14T03:49:35;5.97;;;4.00;;
16969;SDS011;8601;48.718;8.992;2023-06-14T03:52:02;6.60;;;4.33;;
16969;SDS011;8601;48.718;8.992;2023-06-14T03:54:29;6.13;;;4.30;;
16969;SDS011;8601;48.718;8.992;2023-06-14T03:56:57;6.70;;;4.50;;
16969;SDS011;8601;48.718;8.992;2023-06-14T03:59:26;6.23;;;4.30;;
16969;SDS011;8601;48.718;8.992;2023-06-14T04:01:53;5.33;;;4.10;;
16969;SDS011;8601;48.718;8.992;2023-06-14T04:04:21;5.13;;;4.20;;
16969;SDS011;8601;48.718;8.992;2023-06-14T04:06:54;4.73;;;4.10;;
16969;SDS011;8601;48.718;8.992;2023-06-14T04:09:21;7.30;;;4.10;;
16969;SDS011;8601;48.718;8.992;2023-06-14T04:11:50;6.40;;;4.93;;
16969;SDS011;8601;48.718;8.992;2023-06-14T04:14:17;5.10;;;4.20;;
16969;SDS011;8601;48.718;8.992;2023-06-14T04:16:45;4.37;;;3.90;;
16969;SDS011;8601;48.718;8.992;2023-06-14T04:19:12;6.13;;;3.77;;
16969;SDS011;8601;48.718;8.992;2023-06-14T04:21:39;4.93;;;4.03;;
16969;SDS011;8601;48.718;8.992;2023-06-14T04:24:07;4.47;;;3.97;;
16969;SDS011;8601;48.718;8.992;2023-06-14T04:26:39;4.30;;;3.87;;
16969;SDS011;8601;48.718;8.992;2023-06-14T04:29:05;4.80;;;4.30;;
16969;SDS011;8601;48.718;8.992;2023-06-14T04:31:32;4.23;;;3.90;;
16969;SDS011;8601;48.718;8.992;2023-06-14T04:34:04;4.57;;;4.17;;
16969;SDS011;8601;48.718;8.992;2023-06-14T04:36:31;6.00;;;4.13;;
16969;SDS011;8601;48.718;8.992;2023-06-14T04:38:59;4.73;;;4.13;;
16969;SDS011;8601;48.718;8.992;2023-06-14T04:41:28;4.57;;;3.87;;
16969;SDS011;8601;48.718;8.992;2023-06-14T04:43:55;5.20;;;4.20;;
16969;SDS011;8601;48.718;8.992;2023-06-14T04:46:26;4.90;;;4.50;;
16969;SDS011;8601;48.718;8.992;2023-06-14T04:48:53;5.27;;;4.57;;
16969;SDS011;8601;48.718;8.992;2023-06-14T04:51:23;5.17;;;4.03;;
16969;SDS011;8601;48.718;8.992;2023-06-14T04:53:54;5.13;;;4.00;;
16969;SDS011;8601;48.718;8.992;2023-06-14T04:56:23;4.60;;;4.20;;
16969;SDS011;8601;48.718;8.992;2023-06-14T04:58:50;5.30;;;4.37;;
16969;SDS011;8601;48.718;8.992;2023-06-14T05:01:18;5.03;;;4.53;;
16969;SDS011;8601;48.718;8.992;2023-06-14T05:03:46;5.97;;;4.20;;
16969;SDS011;8601;48.718;8.992;2023-06-14T05:06:14;5.03;;;4.47;;
16969;SDS011;8601;48.718;8.992;2023-06-14T05:08:43;4.67;;;4.07;;
16969;SDS011;8601;48.718;8.992;2023-06-14T05:11:11;5.40;;;4.43;;
16969;SDS011;8601;48.718;8.992;2023-06-14T05:13:37;6.23;;;4.37;;
16969;SDS011;8601;48.718;8.992;2023-06-14T05:16:06;5.73;;;4.13;;
16969;SDS011;8601;48.718;8.992;2023-06-14T05:18:33;4.57;;;4.13;;
16969;SDS011;8601;48.718;8.992;2023-06-14T05:21:00;4.57;;;4.17;;
16969;SDS011;8601;48.718;8.992;2023-06-14T05:23:27;4.13;;;3.73;;
16969;SDS011;8601;48.718;8.992;2023-06-14T05:25:55;5.20;;;4.67;;
16969;SDS011;8601;48.718;8.992;2023-06-14T05:28:22;6.03;;;4.00;;
16969;SDS011;8601;48.718;8.992;2023-06-14T05:30:49;6.50;;;4.27;;
16969;SDS011;8601;48.718;8.992;2023-06-14T05:33:17;5.03;;;4.53;;
16969;SDS011;8601;48.718;8.992;2023-06-14T05:35:44;5.87;;;4.53;;
16969;SDS011;8601;48.718;8.992;2023-06-14T05:38:11;5.57;;;3.90;;
16969;SDS011;8601;48.718;8.992;2023-06-14T05:40:38;5.43;;;4.30;;
16969;SDS011;8601;48.718;8.992;2023-06-14T05:43:07;10.67;;;4.93;;
16969;SDS011;8601;48.718;8.992;2023-06-14T05:45:33;4.87;;;4.23;;
16969;SDS011;8601;48.718;8.992;2023-06-14T05:48:00;4.87;;;4.40;;
16969;SDS011;8601;48.718;8.992;2023-06-14T05:50:28;4.73;;;4.23;;
16969;SDS011;8601;48.718;8.992;2023-06-14T05:52:55;5.03;;;4.23;;
16969;SDS011;8601;48.718;8.992;2023-06-14T05:55:21;5.33;;;4.00;;
16969;SDS011;8601;48.718;8.992;2023-06-14T05:57:48;5.70;;;4.47;;
16969;SDS011;8601;48.718;8.992;2023-06-14T06:00:17;5.03;;;4.20;;
16969;SDS011;8601;48.718;8.992;2023-06-14T06:02:45;6.80;;;4.67;;
16969;SDS011;8601;48.718;8.992;2023-06-14T06:05:12;5.37;;;3.87;;
16969;SDS011;8601;48.718;8.992;2023-06-14T06:07:41;5.53;;;4.20;;
16969;SDS011;8601;48.718;8.992;2023-06-14T06:10:09;4.57;;;3.90;;
16969;SDS011;8601;48.718;8.992;2023-06-14T06:12:37;5.43;;;3.60;;
16969;SDS011;8601;48.718;8.992;2023-06-14T06:15:04;4.50;;;3.57;;
16969;SDS011;8601;48.718;8.992;2023-06-14T06:17:34;8.20;;;4.17;;
16969;SDS011;8601;48.718;8.992;2023-06-14T06:20:01;4.30;;;3.47;;
16969;SDS011;8601;48.718;8.992;2023-06-14T06:22:28;5.27;;;4.17;;
16969;SDS011;8601;48.718;8.992;2023-06-14T06:24:55;6.27;;;3.80;;
16969;SDS011;8601;48.718;8.992;2023-06-14T06:27:22;9.30;;;3.97;;
16969;SDS011;8601;48.718;8.992;2023-06-14T06:29:49;4.77;;;4.13;;
16969;SDS011;8601;48.718;8.992;2023-06-14T06:32:16;4.97;;;3.50;;
16969;SDS011;8601;48.718;8.992;2023-06-14T06:34:45;4.43;;;3.87;;
16969;SDS011;8601;48.718;8.992;2023-06-14T06:37:13;4.67;;;3.93;;
16969;SDS011;8601;48.718;8.992;2023-06-14T06:39:40;6.67;;;3.63;;
16969;SDS011;8601;48.718;8.992;2023-06-14T06:42:07;6.47;;;3.73;;
16969;SDS011;8601;48.718;8.992;2023-06-14T06:44:34;3.97;;;3.57;;
16969;SDS011;8601;48.718;8.992;2023-06-14T06:47:01;6.03;;;3.60;;
16969;SDS011;8601;48.718;8.992;2023-06-14T06:49:28;4.20;;;3.80;;
16969;SDS011;8601;48.718;8.992;2023-06-14T06:52:03;4.50;;;3.50;;
16969;SDS011;8601;48.718;8.992;2023-06-14T06:54:32;4.30;;;3.90;;
16969;SDS011;8601;48.718;8.992;2023-06-14T06:57:09;4.23;;;3.83;;
16969;SDS011;8601;48.718;8.992;2023-06-14T06:59:36;7.00;;;4.00;;
16969;SDS011;8601;48.718;8.992;2023-06-14T07:02:04;6.17;;;3.50;;
16969;SDS011;8601;48.718;8.992;2023-06-14T07:04:32;5.83;;;3.77;;
16969;SDS011;8601;48.718;8.992;2023-06-14T07:06:59;8.07;;;4.00;;
16969;SDS011;8601;48.718;8.992;2023-06-14T07:09:28;4.33;;;3.90;;
16969;SDS011;8601;48.718;8.992;2023-06-14T07:11:55;4.60;;;3.50;;
16969;SDS011;8601;48.718;8.992;2023-06-14T07:14:22;3.80;;;3.40;;
16969;SDS011;8601;48.718;8.992;2023-06-14T07:16:49;4.07;;;3.67;;
16969;SDS011;8601;48.718;8.992;2023-06-14T07:19:16;4.70;;;3.70;;
16969;SDS011;8601;48.718;8.992;2023-06-14T07:21:43;5.80;;;3.77;;
16969;SDS011;8601;48.718;8.992;2023-06-14T07:24:10;6.47;;;3.77;;
16969;SDS011;8601;48.718;8.992;2023-06-14T07:26:38;6.13;;;3.20;;
16969;SDS011;8601;48.718;8.992;2023-06-14T07:29:05;4.43;;;3.80;;
16969;SDS011;8601;48.718;8.992;2023-06-14T07:31:32;5.77;;;3.90;;
16969;SDS011;8601;48.718;8.992;2023-06-14T07:33:59;4.83;;;4.00;;
16969;SDS011;8601;48.718;8.992;2023-06-14T07:36:27;5.33;;;3.60;;
16969;SDS011;8601;48.718;8.992;2023-06-14T07:38:54;5.23;;;4.07;;
16969;SDS011;8601;48.718;8.992;2023-06-14T07:41:21;4.30;;;3.90;;
16969;SDS011;8601;48.718;8.992;2023-06-14T07:43:50;6.53;;;4.17;;
16969;SDS011;8601;48.718;8.992;2023-06-14T07:46:17;4.33;;;3.77;;
16969;SDS011;8601;48.718;8.992;2023-06-14T07:48:44;4.47;;;3.90;;
16969;SDS011;8601;48.718;8.992;2023-06-14T07:51:11;7.97;;;3.90;;
16969;SDS011;8601;48.718;8.992;2023-06-14T07:53:38;3.93;;;3.50;;
16969;SDS011;8601;48.718;8.992;2023-06-14T07:56:06;4.20;;;3.80;;
16969;SDS011;8601;48.718;8.992;2023-06-14T07:58:33;6.10;;;4.07;;
16969;SDS011;8601;48.718;8.992;2023-06-14T08:01:01;6.43;;;4.20;;
16969;SDS011;8601;48.718;8.992;2023-06-14T08:03:31;4.10;;;3.70;;
16969;SDS011;8601;48.718;8.992;2023-06-14T08:05:58;5.67;;;3.87;;
16969;SDS011;8601;48.718;8.992;2023-06-14T08:08:25;4.43;;;3.60;;
16969;SDS011;8601;48.718;8.992;2023-06-14T08:10:53;4.80;;;3.73;;
16969;SDS011;8601;48.718;8.992;2023-06-14T08:13:20;4.37;;;3.77;;
16969;SDS011;8601;48.718;8.992;2023-06-14T08:15:47;5.83;;;3.77;;
16969;SDS011;8601;48.718;8.992;2023-06-14T08:18:15;4.23;;;3.90;;
16969;SDS011;8601;48.718;8.992;2023-06-14T08:20:42;4.00;;;3.60;;
16969;SDS011;8601;48.718;8.992;2023-06-14T08:23:09;5.77;;;4.20;;
16969;SDS011;8601;48.718;8.992;2023-06-14T08:25:36;11.20;;;4.30;;
16969;SDS011;8601;48.718;8.992;2023-06-14T08:28:03;5.83;;;4.07;;
16969;SDS011;8601;48.718;8.992;2023-06-14T08:30:30;5.00;;;4.40;;
16969;SDS011;8601;48.718;8.992;2023-06-14T08:32:57;4.87;;;3.50;;
16969;SDS011;8601;48.718;8.992;2023-06-14T08:35:25;5.07;;;3.80;;
16969;SDS011;8601;48.718;8.992;2023-06-14T08:37:52;5.60;;;3.60;;
16969;SDS011;8601;48.718;8.992;2023-06-14T08:40:19;5.87;;;3.93;;
16969;SDS011;8601;48.718;8.992;2023-06-14T08:42:50;4.40;;;4.00;;
16969;SDS011;8601;48.718;8.992;2023-06-14T08:45:18;5.73;;;3.73;;
16969;SDS011;8601;48.718;8.992;2023-06-14T08:47:46;4.43;;;3.90;;
16969;SDS011;8601;48.718;8.992;2023-06-14T08:50:17;5.63;;;4.47;;
16969;SDS011;8601;48.718;8.992;2023-06-14T08:52:48;6.80;;;4.20;;
16969;SDS011;8601;48.718;8.992;2023-06-14T08:55:19;9.53;;;3.73;;
16969;SDS011;8601;48.718;8.992;2023-06-14T08:57:50;7.97;;;4.30;;
16969;SDS011;8601;48.718;8.992;2023-06-14T09:00:19;4.30;;;3.70;;
16969;SDS011;8601;48.718;8.992;2023-06-14T09:02:47;4.37;;;3.87;;
16969;SDS011;8601;48.718;8.992;2023-06-14T09:05:15;4.77;;;4.10;;
16969;SDS011;8601;48.718;8.992;2023-06-14T09:07:43;8.70;;;3.93;;
16969;SDS011;8601;48.718;8.992;2023-06-14T09:10:12;5.60;;;3.73;;
16969;SDS011;8601;48.718;8.992;2023-06-14T09:12:41;6.43;;;4.10;;
16969;SDS011;8601;48.718;8.992;2023-06-14T09:15:09;5.23;;;4.03;;
16969;SDS011;8601;48.718;8.992;2023-06-14T09:17:36;5.73;;;3.67;;
16969;SDS011;8601;48.718;8.992;2023-06-14T09:20:04;5.27;;;3.90;;
16969;SDS011;8601;48.718;8.992;2023-06-14T09:22:36;4.37;;;3.50;;
16969;SDS011;8601;48.718;8.992;2023-06-14T09:25:03;5.77;;;4.10;;
16969;SDS011;8601;48.718;8.992;2023-06-14T09:27:32;5.87;;;3.73;;
16969;SDS011;8601;48.718;8.992;2023-06-14T09:30:00;4.40;;;4.00;;
16969;SDS011;8601;48.718;8.992;2023-06-14T09:32:28;8.83;;;3.70;;
16969;SDS011;8601;48.718;8.992;2023-06-14T09:34:55;4.17;;;3.83;;
16969;SDS011;8601;48.718;8.992;2023-06-14T09:37:29;9.03;;;4.20;;
16969;SDS011;8601;48.718;8.992;2023-06-14T09:39:57;5.20;;;3.83;;
16969;SDS011;8601;48.718;8.992;2023-06-14T09:42:24;8.60;;;4.00;;
16969;SDS011;8601;48.718;8.992;2023-06-14T09:44:55;4.93;;;4.03;;
16969;SDS011;8601;48.718;8.992;2023-06-14T09:47:23;6.05;;;3.95;;
16969;SDS011;8601;48.718;8.992;2023-06-14T09:49:51;8.48;;;3.95;;
16969;SDS011;8601;48.718;8.992;2023-06-14T09:52:19;5.13;;;4.28;;
16969;SDS011;8601;48.718;8.992;2023-06-14T09:54:47;5.38;;;3.83;;
16969;SDS011;8601;48.718;8.992;2023-06-14T09:57:15;5.20;;;4.57;;
16969;SDS011;8601;48.718;8.992;2023-06-14T09:59:44;4.68;;;3.92;;
16969;SDS011;8601;48.718;8.992;2023-06-14T10:02:17;6.05;;;3.63;;
16969;SDS011;8601;48.718;8.992;2023-06-14T10:04:50;4.32;;;3.92;;
16969;SDS011;8601;48.718;8.992;2023-06-14T10:07:25;4.25;;;3.58;;
16969;SDS011;8601;48.718;8.992;2023-06-14T10:09:56;4.28;;;3.70;;
16969;SDS011;8601;48.718;8.992;2023-06-14T10:12:24;5.20;;;3.85;;
16969;SDS011;8601;48.718;8.992;2023-06-14T10:14:52;7.50;;;3.63;;
16969;SDS011;8601;48.718;8.992;2023-06-14T10:17:27;4.22;;;3.40;;
16969;SDS011;8601;48.718;8.992;2023-06-14T10:20:03;3.93;;;3.53;;
16969;SDS011;8601;48.718;8.992;2023-06-14T10:22:42;4.82;;;3.35;;
16969;SDS011;8601;48.718;8.992;2023-06-14T10:25:13;6.45;;;3.47;;
16969;SDS011;8601;48.718;8.992;2023-06-14T10:27:52;5.47;;;3.72;;
16969;SDS011;8601;48.718;8.992;2023-06-14T10:30:25;7.68;;;4.00;;
16969;SDS011;8601;48.718;8.992;2023-06-14T10:33:05;5.32;;;3.63;;
16969;SDS011;8601;48.718;8.992;2023-06-14T10:35:33;3.72;;;3.13;;
16969;SDS011;8601;48.718;8.992;2023-06-14T10:38:07;6.10;;;3.50;;
16969;SDS011;8601;48.718;8.992;2023-06-14T10:40:35;4.90;;;3.30;;
16969;SDS011;8601;48.718;8.992;2023-06-14T10:48:45;3.33;;;3.03;;
16969;SDS011;8601;48.718;8.992;2023-06-14T10:51:16;5.32;;;3.40;;
16969;SDS011;8601;48.718;8.992;2023-06-14T10:53:47;4.40;;;3.47;;
16969;SDS011;8601;48.718;8.992;2023-06-14T10:56:24;3.53;;;3.22;;
16969;SDS011;8601;48.718;8.992;2023-06-14T10:58:53;4.68;;;3.42;;
16969;SDS011;8601;48.718;8.992;2023-06-14T11:01:23;5.97;;;3.45;;
16969;SDS011;8601;48.718;8.992;2023-06-14T11:04:08;4.90;;;3.72;;
16969;SDS011;8601;48.718;8.992;2023-06-14T11:06:43;4.28;;;3.60;;
16969;SDS011;8601;48.718;8.992;2023-06-14T11:09:20;5.10;;;3.58;;
16969;SDS011;8601;48.718;8.992;2023-06-14T11:12:06;5.35;;;3.53;;
16969;SDS011;8601;48.718;8.992;2023-06-14T11:14:36;6.18;;;3.28;;
16969;SDS011;8601;48.718;8.992;2023-06-14T11:17:04;4.53;;;3.72;;
16969;SDS011;8601;48.718;8.992;2023-06-14T11:19:32;4.35;;;3.20;;
16969;SDS011;8601;48.718;8.992;2023-06-14T11:22:00;4.15;;;3.42;;
16969;SDS011;8601;48.718;8.992;2023-06-14T11:24:26;4.75;;;3.75;;
16969;SDS011;8601;48.718;8.992;2023-06-14T11:26:54;5.00;;;3.40;;
16969;SDS011;8601;48.718;8.992;2023-06-14T11:29:22;5.90;;;3.45;;
16969;SDS011;8601;48.718;8.992;2023-06-14T11:31:50;5.43;;;3.50;;
16969;SDS011;8601;48.718;8.992;2023-06-14T11:34:17;7.43;;;3.65;;
16969;SDS011;8601;48.718;8.992;2023-06-14T11:36:46;4.57;;;3.50;;
16969;SDS011;8601;48.718;8.992;2023-06-14T11:39:13;5.75;;;3.45;;
16969;SDS011;8601;48.718;8.992;2023-06-14T11:41:41;3.83;;;3.42;;
16969;SDS011;8601;48.718;8.992;2023-06-14T11:44:09;5.10;;;4.00;;
16969;SDS011;8601;48.718;8.992;2023-06-14T11:46:36;5.22;;;3.50;;
16969;SDS011;8601;48.718;8.992;2023-06-14T11:49:04;3.47;;;3.15;;
16969;SDS011;8601;48.718;8.992;2023-06-14T11:51:32;5.72;;;3.28;;
16969;SDS011;8601;48.718;8.992;2023-06-14T11:54:01;4.38;;;3.20;;
16969;SDS011;8601;48.718;8.992;2023-06-14T11:56:28;4.97;;;3.38;;
16969;SDS011;8601;48.718;8.992;2023-06-14T11:58:56;4.65;;;3.03;;
16969;SDS011;8601;48.718;8.992;2023-06-14T12:01:24;4.72;;;3.45;;
16969;SDS011;8601;48.718;8.992;2023-06-14T12:03:52;5.43;;;3.42;;
16969;SDS011;8601;48.718;8.992;2023-06-14T12:06:25;5.00;;;3.50;;
16969;SDS011;8601;48.718;8.992;2023-06-14T12:08:57;4.32;;;3.30;;
16969;SDS011;8601;48.718;8.992;2023-06-14T12:11:25;4.00;;;3.60;;
16969;SDS011;8601;48.718;8.992;2023-06-14T12:13:58;3.83;;;3.25;;
16969;SDS011;8601;48.718;8.992;2023-06-14T12:16:29;8.18;;;3.75;;
16969;SDS011;8601;48.718;8.992;2023-06-14T12:18:59;4.20;;;3.67;;
16969;SDS011;8601;48.718;8.992;2023-06-14T12:21:27;6.53;;;3.80;;
16969;SDS011;8601;48.718;8.992;2023-06-14T12:23:54;5.32;;;3.58;;
16969;SDS011;8601;48.718;8.992;2023-06-14T12:26:21;3.83;;;3.53;;
16969;SDS011;8601;48.718;8.992;2023-06-14T12:28:52;6.18;;;3.65;;
16969;SDS011;8601;48.718;8.992;2023-06-14T12:31:19;6.20;;;3.60;;
16969;SDS011;8601;48.718;8.992;2023-06-14T12:33:46;5.90;;;3.42;;
16969;SDS011;8601;48.718;8.992;2023-06-14T12:36:14;4.75;;;3.75;;
16969;SDS011;8601;48.718;8.992;2023-06-14T12:38:41;8.60;;;3.72;;
16969;SDS011;8601;48.718;8.992;2023-06-14T12:41:09;4.22;;;3.35;;
16969;SDS011;8601;48.718;8.992;2023-06-14T12:43:35;7.82;;;3.78;;
16969;SDS011;8601;48.718;8.992;2023-06-14T12:46:04;4.50;;;3.17;;
16969;SDS011;8601;48.718;8.992;2023-06-14T12:48:31;5.32;;;3.55;;
16969;SDS011;8601;48.718;8.992;2023-06-14T12:50:59;3.78;;;3.40;;
16969;SDS011;8601;48.718;8.992;2023-06-14T12:53:26;6.30;;;3.53;;
16969;SDS011;8601;48.718;8.992;2023-06-14T12:55:53;4.10;;;3.25;;
16969;SDS011;8601;48.718;8.992;2023-06-14T12:58:20;4.07;;;2.90;;
16969;SDS011;8601;48.718;8.992;2023-06-14T13:00:48;3.80;;;2.95;;
16969;SDS011;8601;48.718;8.992;2023-06-14T13:03:16;3.50;;;3.20;;
16969;SDS011;8601;48.718;8.992;2023-06-14T13:05:43;5.85;;;3.33;;
16969;SDS011;8601;48.718;8.992;2023-06-14T13:08:11;4.20;;;3.17;;
16969;SDS011;8601;48.718;8.992;2023-06-14T13:10:38;4.97;;;3.45;;
16969;SDS011;8601;48.718;8.992;2023-06-14T13:13:05;5.05;;;3.05;;
16969;SDS011;8601;48.718;8.992;2023-06-14T13:15:33;4.47;;;3.30;;
16969;SDS011;8601;48.718;8.992;2023-06-14T13:18:00;6.82;;;3.58;;
16969;SDS011;8601;48.718;8.992;2023-06-14T13:20:29;3.67;;;3.25;;
16969;SDS011;8601;48.718;8.992;2023-06-14T13:22:56;5.20;;;3.28;;
16969;SDS011;8601;48.718;8.992;2023-06-14T13:25:23;6.53;;;2.92;;
16969;SDS011;8601;48.718;8.992;2023-06-14T13:27:50;5.55;;;3.22;;
16969;SDS011;8601;48.718;8.992;2023-06-14T13:30:17;3.33;;;3.03;;
16969;SDS011;8601;48.718;8.992;2023-06-14T13:32:43;3.47;;;2.72;;
16969;SDS011;8601;48.718;8.992;2023-06-14T13:35:11;4.53;;;3.05;;
16969;SDS011;8601;48.718;8.992;2023-06-14T13:37:39;4.80;;;3.10;;
16969;SDS011;8601;48.718;8.992;2023-06-14T13:40:06;3.95;;;3.13;;
16969;SDS011;8601;48.718;8.992;2023-06-14T13:42:34;4.20;;;3.15;;
16969;SDS011;8601;48.718;8.992;2023-06-14T13:45:01;5.30;;;2.95;;
16969;SDS011;8601;48.718;8.992;2023-06-14T13:47:28;2.90;;;2.60;;
16969;SDS011;8601;48.718;8.992;2023-06-14T13:49:56;6.80;;;3.05;;
16969;SDS011;8601;48.718;8.992;2023-06-14T13:52:23;5.05;;;2.97;;
16969;SDS011;8601;48.718;8.992;2023-06-14T13:54:52;4.22;;;3.20;;
16969;SDS011;8601;48.718;8.992;2023-06-14T13:57:19;4.40;;;3.10;;
16969;SDS011;8601;48.718;8.992;2023-06-14T13:59:46;3.35;;;3.05;;
16969;SDS011;8601;48.718;8.992;2023-06-14T14:02:13;4.40;;;3.45;;
16969;SDS011;8601;48.718;8.992;2023-06-14T14:04:40;4.13;;;3.05;;
16969;SDS011;8601;48.718;8.992;2023-06-14T14:07:07;5.90;;;3.65;;
16969;SDS011;8601;48.718;8.992;2023-06-14T14:09:35;4.30;;;2.97;;
16969;SDS011;8601;48.718;8.992;2023-06-14T14:12:04;5.55;;;3.42;;
16969;SDS011;8601;48.718;8.992;2023-06-14T14:14:32;3.58;;;2.88;;
16969;SDS011;8601;48.718;8.992;2023-06-14T14:16:58;4.13;;;3.08;;
16969;SDS011;8601;48.718;8.992;2023-06-14T14:19:25;5.13;;;2.97;;
16969;SDS011;8601;48.718;8.992;2023-06-14T14:21:52;3.63;;;3.20;;
16969;SDS011;8601;48.718;8.992;2023-06-14T14:24:19;4.25;;;3.13;;
16969;SDS011;8601;48.718;8.992;2023-06-14T14:26:46;4.45;;;3.08;;
16969;SDS011;8601;48.718;8.992;2023-06-14T14:29:16;5.05;;;2.75;;
16969;SDS011;8601;48.718;8.992;2023-06-14T14:31:43;6.88;;;3.30;;
16969;SDS011;8601;48.718;8.992;2023-06-14T14:34:09;3.50;;;2.80;;
16969;SDS011;8601;48.718;8.992;2023-06-14T14:36:36;4.35;;;3.00;;
16969;SDS011;8601;48.718;8.992;2023-06-14T14:39:07;3.13;;;2.83;;
16969;SDS011;8601;48.718;8.992;2023-06-14T14:41:34;3.88;;;3.00;;
16969;SDS011;8601;48.718;8.992;2023-06-14T14:44:02;3.65;;;3.35;;
16969;SDS011;8601;48.718;8.992;2023-06-14T14:46:31;6.03;;;3.15;;
16969;SDS011;8601;48.718;8.992;2023-06-14T14:48:58;3.40;;;3.10;;
16969;SDS011;8601;48.718;8.992;2023-06-14T14:51:26;3.22;;;2.88;;
16969;SDS011;8601;48.718;8.992;2023-06-14T14:53:53;3.95;;;2.80;;
16969;SDS011;8601;48.718;8.992;2023-06-14T14:56:20;3.42;;;3.13;;
16969;SDS011;8601;48.718;8.992;2023-06-14T14:58:48;4.25;;;2.78;;
16969;SDS011;8601;48.718;8.992;2023-06-14T15:01:15;4.20;;;3.20;;
16969;SDS011;8601;48.718;8.992;2023-06-14T15:03:44;3.40;;;3.03;;
16969;SDS011;8601;48.718;8.992;2023-06-14T15:06:11;5.15;;;3.35;;
16969;SDS011;8601;48.718;8.992;2023-06-14T15:08:38;5.03;;;3.10;;
16969;SDS011;8601;48.718;8.992;2023-06-14T15:11:04;3.13;;;2.85;;
16969;SDS011;8601;48.718;8.992;2023-06-14T15:13:31;4.72;;;3.65;;